Terminal Aerodrome Forecast
Issued by NWS Caribou, ME

Current Version | Previous Version | Text Only | Print | Product List | Glossary On
Versions: 1 2 3 4 5 6 7 8 9 10 11 12 13 14 15 16 17 18 19
000 FTUS41 KCAR 052320 TAFCAR TAF KCAR 052320Z 0600/0624 32007KT P6SM FEW250 FM060800 VRB03KT P6SM SKC FM061400 24007KT P6SM FEW250 FM061800 24010G19KT P6SM SCT030=

USA.gov is the U.S. government's official web portal to all federal, state and local government web resources and services.